createdAt,value
2023-02-09T00:02:11.985Z,39.90
2023-02-09T00:04:38.622Z,38.60
2023-02-09T00:07:05.211Z,39.30
2023-02-09T00:09:31.831Z,40.10
2023-02-09T00:12:17.199Z,38.30
2023-02-09T00:14:43.798Z,39.40
2023-02-09T00:17:10.431Z,39.80
2023-02-09T00:19:37.068Z,38.40
2023-02-09T00:22:03.695Z,39.50
2023-02-09T00:24:30.336Z,40.20
2023-02-09T00:26:56.913Z,38.60
2023-02-09T00:29:24.091Z,39.60
2023-02-09T00:31:51.279Z,39.90
2023-02-09T00:34:18.006Z,38.30
2023-02-09T00:36:44.604Z,39.30
2023-02-09T00:39:11.154Z,39.90
2023-02-09T00:41:56.603Z,38.60
2023-02-09T00:44:23.226Z,39.10
2023-02-09T00:46:49.848Z,38.70
2023-02-09T00:49:16.439Z,38.50
2023-02-09T00:51:43.019Z,38.40
2023-02-09T00:54:09.975Z,38.10
2023-02-09T00:56:36.546Z,38.30
2023-02-09T00:59:03.254Z,38.10
2023-02-09T01:01:29.907Z,38.30
2023-02-09T01:03:56.565Z,37.50
2023-02-09T01:06:23.128Z,38.30
2023-02-09T01:08:50.857Z,38.70
2023-02-09T01:11:17.775Z,38.00
2023-02-09T01:13:45.006Z,39.00
2023-02-09T01:16:13.200Z,38.10
2023-02-09T01:18:40.082Z,38.30
2023-02-09T01:21:10.388Z,38.60
2023-02-09T01:23:36.956Z,37.50
2023-02-09T01:26:04.460Z,38.40
2023-02-09T01:28:31.243Z,38.00
2023-02-09T01:30:57.991Z,38.30
2023-02-09T01:33:24.662Z,38.90
2023-02-09T01:35:57.016Z,37.80
2023-02-09T01:38:23.612Z,38.50
2023-02-09T01:40:50.377Z,38.70
2023-02-09T01:43:17.276Z,37.70
2023-02-09T01:45:44.611Z,39.10
2023-02-09T01:48:11.677Z,39.10
2023-02-09T01:50:40.269Z,37.70
2023-02-09T01:53:07.029Z,38.70
2023-02-09T01:55:36.067Z,39.40
2023-02-09T01:58:10.500Z,38.10
2023-02-09T02:00:37.060Z,38.60
2023-02-09T02:03:09.070Z,39.30
2023-02-09T02:05:37.913Z,38.70
2023-02-09T02:08:07.791Z,38.50
2023-02-09T02:10:34.994Z,39.20
2023-02-09T02:13:01.837Z,38.60
2023-02-09T02:15:38.489Z,38.90
2023-02-09T02:18:14.608Z,39.10
2023-02-09T02:20:41.127Z,38.40
2023-02-09T02:23:16.983Z,39.00
2023-02-09T02:25:56.576Z,39.50
2023-02-09T02:28:44.305Z,38.20
2023-02-09T02:31:29.862Z,39.30
2023-02-09T02:34:05.590Z,38.80
2023-02-09T02:36:47.663Z,39.00
2023-02-09T02:39:17.217Z,39.30
2023-02-09T02:42:08.711Z,38.70
2023-02-09T02:44:39.797Z,39.50
2023-02-09T02:47:08.471Z,40.00
2023-02-09T02:49:44.355Z,39.20
2023-02-09T02:52:11.127Z,39.90
2023-02-09T02:54:40.201Z,38.90
2023-02-09T02:57:09.722Z,39.40
2023-02-09T02:59:40.712Z,39.30
2023-02-09T03:02:09.910Z,40.00
2023-02-09T03:04:37.306Z,39.30
2023-02-09T03:07:08.100Z,39.80
2023-02-09T03:09:35.156Z,39.20
2023-02-09T03:12:08.162Z,38.90
2023-02-09T03:14:41.234Z,39.50
2023-02-09T03:17:16.906Z,39.70
2023-02-09T03:19:47.123Z,39.10
2023-02-09T03:22:17.536Z,39.70
2023-02-09T03:24:53.359Z,39.50
2023-02-09T03:27:24.968Z,38.60
2023-02-09T03:29:53.895Z,39.40
2023-02-09T03:32:21.169Z,38.90
2023-02-09T03:34:47.776Z,39.00
2023-02-09T03:37:14.482Z,39.70
2023-02-09T03:39:41.176Z,38.80
2023-02-09T03:42:07.754Z,39.50
2023-02-09T03:44:34.341Z,39.10
2023-02-09T03:47:04.284Z,38.20
2023-02-09T03:49:35.575Z,37.80
2023-02-09T03:52:02.529Z,38.20
2023-02-09T03:54:29.984Z,38.10
2023-02-09T03:56:57.571Z,37.20
2023-02-09T03:59:27.149Z,37.50
2023-02-09T04:01:54.557Z,37.50
2023-02-09T04:04:21.269Z,37.30
2023-02-09T04:06:47.954Z,38.00
2023-02-09T04:09:14.940Z,38.50
2023-02-09T04:11:41.858Z,38.00
2023-02-09T04:14:11.263Z,38.70
2023-02-09T04:16:37.957Z,38.40
2023-02-09T04:19:05.291Z,38.70
2023-02-09T04:21:32.116Z,39.00
2023-02-09T04:23:58.838Z,38.30
2023-02-09T04:26:25.462Z,39.00
2023-02-09T04:28:52.139Z,39.10
2023-02-09T04:31:18.951Z,39.00
2023-02-09T04:33:45.611Z,39.00
2023-02-09T04:36:12.384Z,38.70
2023-02-09T04:38:39.087Z,38.80
2023-02-09T04:41:06.006Z,39.00
2023-02-09T04:43:32.914Z,38.40
2023-02-09T04:45:59.659Z,39.00
2023-02-09T04:48:28.473Z,40.30
2023-02-09T04:50:55.401Z,37.80
2023-02-09T04:53:22.409Z,39.20
2023-02-09T04:55:50.565Z,39.00
2023-02-09T04:58:37.415Z,37.90
2023-02-09T05:01:04.321Z,38.90
2023-02-09T05:03:31.147Z,39.00
2023-02-09T05:05:58.562Z,38.50
2023-02-09T05:08:25.143Z,37.90
2023-02-09T05:10:52.139Z,39.00
2023-02-09T05:13:19.715Z,37.70
2023-02-09T05:15:46.351Z,38.50
2023-02-09T05:18:13.080Z,38.90
2023-02-09T05:20:39.771Z,37.90
2023-02-09T05:23:06.430Z,38.50
2023-02-09T05:25:33.027Z,38.10
2023-02-09T05:27:59.620Z,38.10
2023-02-09T05:30:29.346Z,38.60
2023-02-09T05:32:56.265Z,37.40
2023-02-09T05:35:23.220Z,38.20
2023-02-09T05:37:49.792Z,38.60
2023-02-09T05:40:16.517Z,37.70
2023-02-09T05:42:43.411Z,38.20
2023-02-09T05:45:09.977Z,38.40
2023-02-09T05:47:36.672Z,38.20
2023-02-09T05:50:03.322Z,38.60
2023-02-09T05:52:30.690Z,37.50
2023-02-09T05:54:57.288Z,36.90
2023-02-09T05:57:23.848Z,37.30
2023-02-09T05:59:50.435Z,37.70
2023-02-09T06:02:17.104Z,37.80
2023-02-09T06:04:43.708Z,37.70
2023-02-09T06:07:11.975Z,37.90
2023-02-09T06:09:38.747Z,38.00
2023-02-09T06:12:05.401Z,38.30
2023-02-09T06:14:31.997Z,38.00
2023-02-09T06:16:58.646Z,37.80
2023-02-09T06:19:25.214Z,38.20
2023-02-09T06:21:51.763Z,38.20
2023-02-09T06:24:18.329Z,38.20
2023-02-09T06:26:44.967Z,38.50
2023-02-09T06:29:11.692Z,38.30
2023-02-09T06:31:38.480Z,38.50
2023-02-09T06:34:05.890Z,38.50
2023-02-09T06:36:32.682Z,38.30
2023-02-09T06:38:59.303Z,39.20
2023-02-09T06:41:25.883Z,38.50
2023-02-09T06:43:52.431Z,38.40
2023-02-09T06:46:19.120Z,38.50
2023-02-09T06:48:45.741Z,38.30
2023-02-09T06:51:13.932Z,38.20
2023-02-09T06:53:42.611Z,38.20
2023-02-09T06:56:10.186Z,38.10
2023-02-09T06:58:37.834Z,38.10
2023-02-09T07:01:05.648Z,38.10
2023-02-09T07:03:32.281Z,38.00
2023-02-09T07:06:06.333Z,38.50
2023-02-09T07:08:33.027Z,38.10
2023-02-09T07:11:03.888Z,37.90
2023-02-09T07:13:31.914Z,37.90
2023-02-09T07:15:59.554Z,38.10
2023-02-09T07:18:26.586Z,37.50
2023-02-09T07:20:56.981Z,38.00
2023-02-09T07:23:23.690Z,38.40
2023-02-09T07:25:50.643Z,38.20
2023-02-09T07:28:20.435Z,37.70
2023-02-09T07:30:51.916Z,37.10
2023-02-09T07:33:18.935Z,36.90
2023-02-09T07:35:46.214Z,38.20
2023-02-09T07:38:13.056Z,38.70
2023-02-09T07:40:39.919Z,37.50
2023-02-09T07:43:06.528Z,37.90
2023-02-09T07:45:33.704Z,38.20
2023-02-09T07:48:00.284Z,38.20
2023-02-09T07:50:26.866Z,38.10
2023-02-09T07:52:54.060Z,37.80
2023-02-09T07:55:20.879Z,38.00
2023-02-09T07:57:47.483Z,38.30
2023-02-09T08:00:14.779Z,38.20
2023-02-09T08:02:41.442Z,38.20
2023-02-09T08:05:12.201Z,38.60
2023-02-09T08:07:38.868Z,38.50
2023-02-09T08:10:05.597Z,37.90
2023-02-09T08:12:50.779Z,38.60
2023-02-09T08:15:21.078Z,38.70
2023-02-09T08:17:49.148Z,37.90
2023-02-09T08:20:17.209Z,39.00
2023-02-09T08:22:48.813Z,38.50
2023-02-09T08:25:16.672Z,38.40
2023-02-09T08:27:44.271Z,38.40
2023-02-09T08:30:11.444Z,38.50
2023-02-09T08:32:38.243Z,38.30
2023-02-09T08:35:05.571Z,38.20
2023-02-09T08:37:32.259Z,38.30
2023-02-09T08:39:58.832Z,38.60
2023-02-09T08:42:25.402Z,38.40
2023-02-09T08:44:51.980Z,38.90
2023-02-09T08:47:18.611Z,38.70
2023-02-09T08:49:45.168Z,38.30
2023-02-09T08:52:11.771Z,38.50
2023-02-09T08:54:41.338Z,38.70
2023-02-09T08:57:08.306Z,38.10
2023-02-09T08:59:34.926Z,38.70
2023-02-09T09:02:01.464Z,38.80
2023-02-09T09:04:29.494Z,38.80
2023-02-09T09:06:56.140Z,37.90
2023-02-09T09:09:22.735Z,38.60
2023-02-09T09:11:49.409Z,38.50
2023-02-09T09:14:18.659Z,38.60
2023-02-09T09:16:45.294Z,38.60
2023-02-09T09:19:12.058Z,38.20
2023-02-09T09:21:38.646Z,38.60
2023-02-09T09:24:05.270Z,38.40
2023-02-09T09:26:32.858Z,38.60
2023-02-09T09:28:59.431Z,38.40
2023-02-09T09:31:26.149Z,37.90
2023-02-09T09:33:52.890Z,37.30
2023-02-09T09:36:20.638Z,37.60
2023-02-09T09:38:47.252Z,38.80
2023-02-09T09:41:25.588Z,38.90
2023-02-09T09:43:52.547Z,37.90
2023-02-09T09:46:20.836Z,39.20
2023-02-09T09:48:51.869Z,38.50
2023-02-09T09:51:18.464Z,39.50
2023-02-09T09:53:46.033Z,38.70
2023-02-09T09:56:13.241Z,38.80
2023-02-09T09:58:41.465Z,39.40
2023-02-09T10:01:12.150Z,39.10
2023-02-09T10:03:38.800Z,39.60
2023-02-09T10:06:19.855Z,38.60
2023-02-09T10:08:54.675Z,39.20
2023-02-09T10:11:34.115Z,39.10
2023-02-09T10:14:00.724Z,38.50
2023-02-09T10:16:29.134Z,39.00
2023-02-09T10:19:00.764Z,38.80
2023-02-09T10:21:32.545Z,39.50
2023-02-09T10:24:02.088Z,38.80
2023-02-09T10:26:33.270Z,39.40
2023-02-09T10:29:07.282Z,39.10
2023-02-09T10:31:34.007Z,39.10
2023-02-09T10:34:13.550Z,39.80
2023-02-09T10:36:47.623Z,39.50
2023-02-09T10:39:16.957Z,39.50
2023-02-09T10:41:45.562Z,39.50
2023-02-09T10:44:26.341Z,39.30
2023-02-09T10:47:25.029Z,39.60
2023-02-09T10:50:00.942Z,39.70
2023-02-09T10:52:31.835Z,39.10
2023-02-09T10:55:01.300Z,39.20
2023-02-09T10:57:38.318Z,39.90
2023-02-09T11:00:17.065Z,40.00
2023-02-09T11:02:50.791Z,38.80
2023-02-09T11:05:20.337Z,39.60
2023-02-09T11:07:51.475Z,39.30
2023-02-09T11:10:19.172Z,39.90
2023-02-09T11:12:45.987Z,39.00
2023-02-09T11:15:13.786Z,39.10
2023-02-09T11:17:49.650Z,39.60
2023-02-09T11:20:16.215Z,39.70
2023-02-09T11:23:01.372Z,38.80
2023-02-09T11:25:37.802Z,38.90
2023-02-09T11:28:21.644Z,39.20
2023-02-09T11:31:00.645Z,38.20
2023-02-09T11:33:53.799Z,38.70
2023-02-09T11:36:39.168Z,38.70
2023-02-09T11:39:11.290Z,38.30
2023-02-09T11:42:00.630Z,38.50
2023-02-09T11:44:34.387Z,39.10
2023-02-09T11:47:06.517Z,39.40
2023-02-09T11:49:59.585Z,38.80
2023-02-09T11:52:38.184Z,39.00
2023-02-09T11:55:19.558Z,38.10
2023-02-09T11:57:49.055Z,39.20
2023-02-09T12:00:18.976Z,38.90
2023-02-09T12:02:55.403Z,38.80
2023-02-09T12:05:22.537Z,38.50
2023-02-09T12:08:10.430Z,38.60
2023-02-09T12:10:43.181Z,38.50
2023-02-09T12:13:39.472Z,39.00
2023-02-09T12:16:15.250Z,39.10
2023-02-09T12:18:43.556Z,38.80
2023-02-09T12:21:10.292Z,39.10
2023-02-09T12:23:38.080Z,38.90
2023-02-09T12:26:16.628Z,38.70
2023-02-09T12:29:04.449Z,39.30
2023-02-09T12:31:31.947Z,40.00
2023-02-09T12:33:58.560Z,39.40
2023-02-09T12:36:34.412Z,39.60
2023-02-09T12:39:33.540Z,39.40
2023-02-09T12:42:08.929Z,38.90
2023-02-09T12:44:36.483Z,39.10
2023-02-09T12:47:03.118Z,39.80
2023-02-09T12:49:30.000Z,39.70
2023-02-09T12:51:59.537Z,39.80
2023-02-09T12:54:42.909Z,38.30
2023-02-09T12:57:15.410Z,39.10
2023-02-09T12:59:59.550Z,39.90
2023-02-09T13:02:26.233Z,38.70
2023-02-09T13:05:11.694Z,38.60
2023-02-09T13:07:41.434Z,38.70
2023-02-09T13:10:09.030Z,39.90
2023-02-09T13:12:39.961Z,39.70
2023-02-09T13:15:12.962Z,39.80
2023-02-09T13:17:44.145Z,39.10
2023-02-09T13:20:10.964Z,39.10
2023-02-09T13:22:49.155Z,38.70
2023-02-09T13:25:39.023Z,38.90
2023-02-09T13:28:10.688Z,39.40
2023-02-09T13:30:37.816Z,39.50
2023-02-09T13:33:28.367Z,39.00
2023-02-09T13:36:01.523Z,38.60
2023-02-09T13:38:31.261Z,39.20
2023-02-09T13:40:58.457Z,39.10
2023-02-09T13:43:30.108Z,38.80
2023-02-09T13:45:57.665Z,38.60
2023-02-09T13:48:26.346Z,38.10
2023-02-09T13:50:53.904Z,38.50
2023-02-09T13:53:23.505Z,38.40
2023-02-09T13:55:51.869Z,38.40
2023-02-09T13:58:30.095Z,38.70
2023-02-09T14:00:58.895Z,38.00
2023-02-09T14:03:30.911Z,39.10
2023-02-09T14:06:03.168Z,38.60
2023-02-09T14:08:30.783Z,40.50
2023-02-09T14:10:57.298Z,41.10
2023-02-09T14:13:27.314Z,40.90
2023-02-09T14:16:08.607Z,41.10
2023-02-09T14:18:53.966Z,41.30
2023-02-09T14:21:22.000Z,41.30
2023-02-09T14:23:48.563Z,42.50
2023-02-09T14:26:15.242Z,42.20
2023-02-09T14:28:43.503Z,42.60
2023-02-09T14:31:25.951Z,42.60
2023-02-09T14:33:54.496Z,42.70
2023-02-09T14:36:21.128Z,42.70
2023-02-09T14:38:49.484Z,43.10
2023-02-09T14:41:19.090Z,43.10
2023-02-09T14:43:56.094Z,43.20
2023-02-09T14:46:22.765Z,42.90
2023-02-09T14:48:49.432Z,43.30
2023-02-09T14:51:16.202Z,43.40
2023-02-09T14:53:43.667Z,43.10
2023-02-09T14:56:24.426Z,43.30
2023-02-09T14:58:51.043Z,43.60
2023-02-09T15:01:17.650Z,43.40
2023-02-09T15:03:44.255Z,43.20
2023-02-09T15:06:12.008Z,43.70
2023-02-09T15:08:39.238Z,43.80
2023-02-09T15:11:27.634Z,43.50
2023-02-09T15:13:58.161Z,43.50
2023-02-09T15:16:24.884Z,43.70
2023-02-09T15:18:51.501Z,44.10
2023-02-09T15:21:18.106Z,44.40
2023-02-09T15:23:44.677Z,44.00
2023-02-09T15:26:19.034Z,44.20
2023-02-09T15:28:45.772Z,44.10
2023-02-09T15:31:15.975Z,44.00
2023-02-09T15:33:42.893Z,43.80
2023-02-09T15:36:16.791Z,43.80
2023-02-09T15:38:43.347Z,43.90
2023-02-09T15:41:29.234Z,44.00
2023-02-09T15:44:14.245Z,44.00
2023-02-09T15:46:59.405Z,44.10
2023-02-09T15:49:26.003Z,44.20
2023-02-09T15:51:52.651Z,44.30
2023-02-09T15:54:20.256Z,44.10
2023-02-09T15:56:46.921Z,44.40
2023-02-09T15:59:18.315Z,44.60
2023-02-09T16:01:45.024Z,44.50
2023-02-09T16:04:14.207Z,44.40
2023-02-09T16:06:46.018Z,44.80
2023-02-09T16:09:17.686Z,44.70
2023-02-09T16:11:44.342Z,44.70
2023-02-09T16:14:15.978Z,44.70
2023-02-09T16:16:44.087Z,44.80
2023-02-09T16:19:10.829Z,45.00
2023-02-09T16:21:37.386Z,45.10
2023-02-09T16:24:05.790Z,45.10
2023-02-09T16:26:32.944Z,44.90
2023-02-09T16:28:59.569Z,45.10
2023-02-09T16:31:26.347Z,45.00
2023-02-09T16:33:53.063Z,45.10
2023-02-09T16:36:21.398Z,45.10
2023-02-09T16:38:48.114Z,45.10
2023-02-09T16:41:34.346Z,45.20
2023-02-09T16:44:01.546Z,44.90
2023-02-09T16:46:29.699Z,44.90
2023-02-09T16:48:57.054Z,44.60
2023-02-09T16:51:23.722Z,44.90
2023-02-09T16:53:54.293Z,44.90
2023-02-09T16:56:21.187Z,44.90
2023-02-09T16:58:48.424Z,45.10
2023-02-09T17:01:17.362Z,44.70
2023-02-09T17:03:47.101Z,44.90
2023-02-09T17:06:19.960Z,44.60
2023-02-09T17:08:46.594Z,44.50
2023-02-09T17:11:17.551Z,44.40
2023-02-09T17:13:44.223Z,44.50
2023-02-09T17:16:16.099Z,44.50
2023-02-09T17:18:43.764Z,44.20
2023-02-09T17:21:16.483Z,44.40
2023-02-09T17:23:43.764Z,44.40
2023-02-09T17:26:10.842Z,44.40
2023-02-09T17:28:37.489Z,44.40
2023-02-09T17:31:09.784Z,44.30
2023-02-09T17:33:37.674Z,44.50
2023-02-09T17:36:25.332Z,44.60
2023-02-09T17:38:51.840Z,44.40
2023-02-09T17:41:22.844Z,44.80
2023-02-09T17:43:50.093Z,44.80
2023-02-09T17:46:18.822Z,44.80
2023-02-09T17:48:46.609Z,44.70
2023-02-09T17:51:32.120Z,44.70
2023-02-09T17:53:58.851Z,44.50
2023-02-09T17:56:25.461Z,44.40
2023-02-09T17:58:52.190Z,44.20
2023-02-09T18:01:29.049Z,44.20
2023-02-09T18:03:57.164Z,44.60
2023-02-09T18:06:33.518Z,44.10
2023-02-09T18:09:01.099Z,44.40
2023-02-09T18:11:38.789Z,44.20
2023-02-09T18:14:05.400Z,44.10
2023-02-09T18:16:32.270Z,44.40
2023-02-09T18:18:58.981Z,44.20
2023-02-09T18:21:25.569Z,44.70
2023-02-09T18:23:52.178Z,44.30
2023-02-09T18:26:18.754Z,44.10
2023-02-09T18:28:45.320Z,44.10
2023-02-09T18:31:15.312Z,44.30
2023-02-09T18:33:41.979Z,44.10
2023-02-09T18:36:08.632Z,44.10
2023-02-09T18:38:35.435Z,44.20
2023-02-09T18:41:02.075Z,44.90
2023-02-09T18:43:28.638Z,44.40
2023-02-09T18:45:55.307Z,43.90
2023-02-09T18:48:21.864Z,44.60
2023-02-09T18:50:48.470Z,44.60
2023-02-09T18:53:15.448Z,44.60
2023-02-09T18:55:42.077Z,44.60
2023-02-09T18:58:09.443Z,44.60
2023-02-09T19:00:38.533Z,44.20
2023-02-09T19:03:05.242Z,44.30
2023-02-09T19:05:32.919Z,44.50
2023-02-09T19:07:59.627Z,44.30
2023-02-09T19:10:26.577Z,44.70
2023-02-09T19:12:53.953Z,44.60
2023-02-09T19:15:22.453Z,44.40
2023-02-09T19:17:49.099Z,44.40
2023-02-09T19:20:16.808Z,44.40
2023-02-09T19:22:43.541Z,44.50
2023-02-09T19:25:10.157Z,44.50
2023-02-09T19:27:37.150Z,44.60
2023-02-09T19:30:03.931Z,44.70
2023-02-09T19:32:30.558Z,44.30
2023-02-09T19:34:57.117Z,44.60
2023-02-09T19:37:23.762Z,44.60
2023-02-09T19:40:21.660Z,44.30
2023-02-09T19:42:48.735Z,44.60
2023-02-09T19:45:15.337Z,44.70
2023-02-09T19:47:41.961Z,44.50
2023-02-09T19:50:09.550Z,44.70
2023-02-09T19:52:38.238Z,44.70
2023-02-09T19:55:05.069Z,44.50
2023-02-09T19:57:31.666Z,45.00
2023-02-09T19:59:58.223Z,44.90
2023-02-09T20:02:24.882Z,44.50
2023-02-09T20:04:51.493Z,45.50
2023-02-09T20:07:18.152Z,44.60
2023-02-09T20:09:44.883Z,44.50
2023-02-09T20:12:11.475Z,45.10
2023-02-09T20:14:38.179Z,44.60
2023-02-09T20:17:05.202Z,44.50
2023-02-09T20:19:34.478Z,44.70
2023-02-09T20:22:01.052Z,44.90
2023-02-09T20:24:27.580Z,44.90
2023-02-09T20:26:54.161Z,44.90
2023-02-09T20:29:22.580Z,44.60
2023-02-09T20:31:49.348Z,44.70
2023-02-09T20:34:16.319Z,45.10
2023-02-09T20:36:44.795Z,44.70
2023-02-09T20:39:15.837Z,44.40
2023-02-09T20:42:05.490Z,45.20
2023-02-09T20:44:53.606Z,44.70
2023-02-09T20:47:20.202Z,44.60
2023-02-09T20:49:46.827Z,45.10
2023-02-09T20:52:13.469Z,45.10
2023-02-09T20:54:40.181Z,44.30
2023-02-09T20:57:06.818Z,44.60
2023-02-09T20:59:34.666Z,44.50
2023-02-09T21:02:01.325Z,44.40
2023-02-09T21:04:30.044Z,44.00
2023-02-09T21:06:57.536Z,44.00
2023-02-09T21:09:26.550Z,43.80
2023-02-09T21:11:53.638Z,43.70
2023-02-09T21:14:27.596Z,44.30
2023-02-09T21:16:59.392Z,44.20
2023-02-09T21:19:25.984Z,43.90
2023-02-09T21:21:52.950Z,43.80
2023-02-09T21:24:19.650Z,43.70
2023-02-09T21:26:46.346Z,43.50
2023-02-09T21:29:16.177Z,44.00
2023-02-09T21:31:43.034Z,43.60
2023-02-09T21:34:12.211Z,43.70
2023-02-09T21:36:38.914Z,44.20
2023-02-09T21:39:05.510Z,44.00
2023-02-09T21:41:50.949Z,44.20
2023-02-09T21:44:18.387Z,43.70
2023-02-09T21:46:44.981Z,44.30
2023-02-09T21:49:13.109Z,44.10
2023-02-09T21:51:40.219Z,43.80
2023-02-09T21:54:06.932Z,44.90
2023-02-09T21:56:33.541Z,44.00
2023-02-09T21:59:00.186Z,44.00
2023-02-09T22:01:26.801Z,44.40
2023-02-09T22:03:57.175Z,44.00
2023-02-09T22:06:25.048Z,44.50
2023-02-09T22:08:52.014Z,44.50
2023-02-09T22:11:18.589Z,44.40
2023-02-09T22:13:45.135Z,43.90
2023-02-09T22:16:16.428Z,44.50
2023-02-09T22:18:42.978Z,44.20
2023-02-09T22:21:09.533Z,44.40
2023-02-09T22:23:36.190Z,44.10
2023-02-09T22:26:04.465Z,44.10
2023-02-09T22:28:31.411Z,44.10
2023-02-09T22:31:04.500Z,44.10
2023-02-09T22:33:31.178Z,44.40
2023-02-09T22:35:57.747Z,44.10
2023-02-09T22:38:24.348Z,44.70
2023-02-09T22:40:50.935Z,44.20
2023-02-09T22:43:17.477Z,44.10
2023-02-09T22:45:44.075Z,43.90
2023-02-09T22:48:10.754Z,44.40
2023-02-09T22:50:37.500Z,44.10
2023-02-09T22:53:04.248Z,44.10
2023-02-09T22:55:36.922Z,44.20
2023-02-09T22:58:03.475Z,44.40
2023-02-09T23:00:30.068Z,44.20
2023-02-09T23:02:56.642Z,44.70
2023-02-09T23:05:23.180Z,44.40
2023-02-09T23:07:49.766Z,44.10
2023-02-09T23:10:16.738Z,44.30
2023-02-09T23:12:43.315Z,44.50
2023-02-09T23:15:10.040Z,43.90
2023-02-09T23:17:36.619Z,44.10
2023-02-09T23:20:03.287Z,44.30
2023-02-09T23:22:29.970Z,44.10
2023-02-09T23:24:56.584Z,44.20
2023-02-09T23:27:23.168Z,44.10
2023-02-09T23:29:49.832Z,44.20
2023-02-09T23:32:16.410Z,44.40
2023-02-09T23:34:43.017Z,45.10
2023-02-09T23:37:18.757Z,44.50
2023-02-09T23:39:50.397Z,44.30
2023-02-09T23:42:16.966Z,44.40
2023-02-09T23:44:43.542Z,44.20
2023-02-09T23:47:10.328Z,44.70
2023-02-09T23:49:36.983Z,43.70
2023-02-09T23:52:03.752Z,43.70
2023-02-09T23:54:30.374Z,43.70
2023-02-09T23:56:56.911Z,43.70
2023-02-09T23:59:23.484Z,43.90
